sensor_id;sensor_type;location;lat;lon;timestamp;P1;durP1;ratioP1;P2;durP2;ratioP2
26303;SDS011;57113;48.680;8.890;2023-04-24T00:00:54;1.50;;;0.50;;
26303;SDS011;57113;48.680;8.890;2023-04-24T00:03:26;2.33;;;0.57;;
26303;SDS011;57113;48.680;8.890;2023-04-24T00:05:52;1.27;;;0.47;;
26303;SDS011;57113;48.680;8.890;2023-04-24T00:08:21;1.10;;;0.50;;
26303;SDS011;57113;48.680;8.890;2023-04-24T00:10:48;1.73;;;0.50;;
26303;SDS011;57113;48.680;8.890;2023-04-24T00:13:14;0.98;;;0.50;;
26303;SDS011;57113;48.680;8.890;2023-04-24T00:15:40;0.95;;;0.60;;
26303;SDS011;57113;48.680;8.890;2023-04-24T00:18:05;1.67;;;0.57;;
26303;SDS011;57113;48.680;8.890;2023-04-24T00:20:31;0.40;;;0.40;;
26303;SDS011;57113;48.680;8.890;2023-04-24T00:22:58;0.80;;;0.60;;
26303;SDS011;57113;48.680;8.890;2023-04-24T00:25:24;3.38;;;0.60;;
26303;SDS011;57113;48.680;8.890;2023-04-24T00:27:49;1.27;;;0.60;;
26303;SDS011;57113;48.680;8.890;2023-04-24T00:30:15;2.97;;;0.60;;
26303;SDS011;57113;48.680;8.890;2023-04-24T00:32:41;2.08;;;0.60;;
26303;SDS011;57113;48.680;8.890;2023-04-24T00:35:06;1.83;;;0.50;;
26303;SDS011;57113;48.680;8.890;2023-04-24T00:37:32;1.10;;;0.50;;
26303;SDS011;57113;48.680;8.890;2023-04-24T00:39:58;1.25;;;0.45;;
26303;SDS011;57113;48.680;8.890;2023-04-24T00:42:23;2.55;;;0.60;;
26303;SDS011;57113;48.680;8.890;2023-04-24T00:44:50;1.35;;;0.57;;
26303;SDS011;57113;48.680;8.890;2023-04-24T00:47:16;1.10;;;0.50;;
26303;SDS011;57113;48.680;8.890;2023-04-24T00:49:43;2.17;;;0.38;;
26303;SDS011;57113;48.680;8.890;2023-04-24T00:52:09;1.40;;;0.60;;
26303;SDS011;57113;48.680;8.890;2023-04-24T00:54:35;1.98;;;0.60;;
26303;SDS011;57113;48.680;8.890;2023-04-24T00:57:04;0.65;;;0.43;;
26303;SDS011;57113;48.680;8.890;2023-04-24T00:59:30;1.17;;;0.50;;
26303;SDS011;57113;48.680;8.890;2023-04-24T01:01:56;2.10;;;0.60;;
26303;SDS011;57113;48.680;8.890;2023-04-24T01:04:23;1.27;;;0.50;;
26303;SDS011;57113;48.680;8.890;2023-04-24T01:06:49;2.00;;;0.68;;
26303;SDS011;57113;48.680;8.890;2023-04-24T01:09:15;3.13;;;0.65;;
26303;SDS011;57113;48.680;8.890;2023-04-24T01:11:42;2.15;;;0.85;;
26303;SDS011;57113;48.680;8.890;2023-04-24T01:14:08;1.30;;;0.50;;
26303;SDS011;57113;48.680;8.890;2023-04-24T01:16:35;0.70;;;0.40;;
26303;SDS011;57113;48.680;8.890;2023-04-24T01:19:03;0.77;;;0.50;;
26303;SDS011;57113;48.680;8.890;2023-04-24T01:21:30;3.38;;;0.75;;
26303;SDS011;57113;48.680;8.890;2023-04-24T01:23:59;1.98;;;0.60;;
26303;SDS011;57113;48.680;8.890;2023-04-24T01:26:25;2.38;;;0.60;;
26303;SDS011;57113;48.680;8.890;2023-04-24T01:28:50;1.85;;;0.50;;
26303;SDS011;57113;48.680;8.890;2023-04-24T01:31:17;1.95;;;0.75;;
26303;SDS011;57113;48.680;8.890;2023-04-24T01:33:43;1.17;;;0.50;;
26303;SDS011;57113;48.680;8.890;2023-04-24T01:36:09;0.77;;;0.40;;
26303;SDS011;57113;48.680;8.890;2023-04-24T01:38:36;1.27;;;0.70;;
26303;SDS011;57113;48.680;8.890;2023-04-24T01:41:01;1.75;;;0.60;;
26303;SDS011;57113;48.680;8.890;2023-04-24T01:43:27;1.23;;;0.60;;
26303;SDS011;57113;48.680;8.890;2023-04-24T01:45:54;0.40;;;0.30;;
26303;SDS011;57113;48.680;8.890;2023-04-24T01:48:19;0.93;;;0.30;;
26303;SDS011;57113;48.680;8.890;2023-04-24T01:50:45;0.98;;;0.52;;
26303;SDS011;57113;48.680;8.890;2023-04-24T01:53:11;1.25;;;0.50;;
26303;SDS011;57113;48.680;8.890;2023-04-24T01:55:37;1.30;;;0.52;;
26303;SDS011;57113;48.680;8.890;2023-04-24T01:58:03;3.33;;;0.57;;
26303;SDS011;57113;48.680;8.890;2023-04-24T02:00:28;0.90;;;0.40;;
26303;SDS011;57113;48.680;8.890;2023-04-24T02:02:54;0.93;;;0.60;;
26303;SDS011;57113;48.680;8.890;2023-04-24T02:05:20;0.90;;;0.40;;
26303;SDS011;57113;48.680;8.890;2023-04-24T02:07:45;1.00;;;0.45;;
26303;SDS011;57113;48.680;8.890;2023-04-24T02:10:11;2.92;;;0.82;;
26303;SDS011;57113;48.680;8.890;2023-04-24T02:12:37;1.50;;;0.60;;
26303;SDS011;57113;48.680;8.890;2023-04-24T02:15:02;1.02;;;0.57;;
26303;SDS011;57113;48.680;8.890;2023-04-24T02:17:29;1.92;;;0.63;;
26303;SDS011;57113;48.680;8.890;2023-04-24T02:19:55;0.93;;;0.60;;
26303;SDS011;57113;48.680;8.890;2023-04-24T02:22:21;1.60;;;0.50;;
26303;SDS011;57113;48.680;8.890;2023-04-24T02:24:47;1.05;;;0.50;;
26303;SDS011;57113;48.680;8.890;2023-04-24T02:27:12;0.93;;;0.40;;
26303;SDS011;57113;48.680;8.890;2023-04-24T02:29:38;1.25;;;0.40;;
26303;SDS011;57113;48.680;8.890;2023-04-24T02:32:03;1.15;;;0.50;;
26303;SDS011;57113;48.680;8.890;2023-04-24T02:34:29;1.65;;;0.40;;
26303;SDS011;57113;48.680;8.890;2023-04-24T02:36:55;1.85;;;0.57;;
26303;SDS011;57113;48.680;8.890;2023-04-24T02:39:21;1.27;;;0.50;;
26303;SDS011;57113;48.680;8.890;2023-04-24T02:41:46;3.13;;;0.40;;
26303;SDS011;57113;48.680;8.890;2023-04-24T02:44:12;2.25;;;0.43;;
26303;SDS011;57113;48.680;8.890;2023-04-24T02:46:38;1.55;;;0.68;;
26303;SDS011;57113;48.680;8.890;2023-04-24T02:49:03;0.57;;;0.30;;
26303;SDS011;57113;48.680;8.890;2023-04-24T02:51:29;2.85;;;0.70;;
26303;SDS011;57113;48.680;8.890;2023-04-24T02:53:54;1.55;;;0.77;;
26303;SDS011;57113;48.680;8.890;2023-04-24T02:56:20;0.90;;;0.43;;
26303;SDS011;57113;48.680;8.890;2023-04-24T02:58:46;1.38;;;0.40;;
26303;SDS011;57113;48.680;8.890;2023-04-24T03:01:11;1.77;;;0.50;;
26303;SDS011;57113;48.680;8.890;2023-04-24T03:03:38;1.35;;;0.52;;
26303;SDS011;57113;48.680;8.890;2023-04-24T03:06:04;1.60;;;0.55;;
26303;SDS011;57113;48.680;8.890;2023-04-24T03:08:31;2.25;;;0.73;;
26303;SDS011;57113;48.680;8.890;2023-04-24T03:10:57;2.33;;;0.82;;
26303;SDS011;57113;48.680;8.890;2023-04-24T03:13:22;2.42;;;0.70;;
26303;SDS011;57113;48.680;8.890;2023-04-24T03:15:48;1.05;;;0.50;;
26303;SDS011;57113;48.680;8.890;2023-04-24T03:18:13;0.60;;;0.50;;
26303;SDS011;57113;48.680;8.890;2023-04-24T03:20:39;1.88;;;0.77;;
26303;SDS011;57113;48.680;8.890;2023-04-24T03:23:05;0.90;;;0.57;;
26303;SDS011;57113;48.680;8.890;2023-04-24T03:25:30;1.35;;;0.55;;
26303;SDS011;57113;48.680;8.890;2023-04-24T03:27:56;1.23;;;0.50;;
26303;SDS011;57113;48.680;8.890;2023-04-24T03:30:22;3.15;;;1.45;;
26303;SDS011;57113;48.680;8.890;2023-04-24T03:32:48;2.97;;;0.63;;
26303;SDS011;57113;48.680;8.890;2023-04-24T03:35:13;3.83;;;0.70;;
26303;SDS011;57113;48.680;8.890;2023-04-24T03:37:39;1.70;;;0.68;;
26303;SDS011;57113;48.680;8.890;2023-04-24T03:40:05;0.85;;;0.50;;
26303;SDS011;57113;48.680;8.890;2023-04-24T03:42:32;1.25;;;0.50;;
26303;SDS011;57113;48.680;8.890;2023-04-24T03:44:57;0.63;;;0.50;;
26303;SDS011;57113;48.680;8.890;2023-04-24T03:47:23;1.27;;;0.60;;
26303;SDS011;57113;48.680;8.890;2023-04-24T03:49:49;1.13;;;0.50;;
26303;SDS011;57113;48.680;8.890;2023-04-24T03:52:15;1.30;;;0.50;;
26303;SDS011;57113;48.680;8.890;2023-04-24T03:54:40;2.50;;;0.60;;
26303;SDS011;57113;48.680;8.890;2023-04-24T03:57:06;2.28;;;0.63;;
26303;SDS011;57113;48.680;8.890;2023-04-24T03:59:32;1.38;;;0.70;;
26303;SDS011;57113;48.680;8.890;2023-04-24T04:01:57;1.00;;;0.40;;
26303;SDS011;57113;48.680;8.890;2023-04-24T04:04:23;2.17;;;0.77;;
26303;SDS011;57113;48.680;8.890;2023-04-24T04:06:48;1.88;;;0.75;;
26303;SDS011;57113;48.680;8.890;2023-04-24T04:09:14;2.28;;;0.60;;
26303;SDS011;57113;48.680;8.890;2023-04-24T04:11:40;2.60;;;0.55;;
26303;SDS011;57113;48.680;8.890;2023-04-24T04:14:06;1.35;;;0.40;;
26303;SDS011;57113;48.680;8.890;2023-04-24T04:16:31;0.95;;;0.40;;
26303;SDS011;57113;48.680;8.890;2023-04-24T04:18:57;2.30;;;0.70;;
26303;SDS011;57113;48.680;8.890;2023-04-24T04:21:23;3.33;;;0.73;;
26303;SDS011;57113;48.680;8.890;2023-04-24T04:23:49;2.65;;;0.70;;
26303;SDS011;57113;48.680;8.890;2023-04-24T04:26:14;1.23;;;0.40;;
26303;SDS011;57113;48.680;8.890;2023-04-24T04:28:40;2.83;;;0.80;;
26303;SDS011;57113;48.680;8.890;2023-04-24T04:31:06;1.73;;;0.68;;
26303;SDS011;57113;48.680;8.890;2023-04-24T04:33:32;2.33;;;0.45;;
26303;SDS011;57113;48.680;8.890;2023-04-24T04:35:58;2.33;;;0.60;;
26303;SDS011;57113;48.680;8.890;2023-04-24T04:38:25;5.05;;;0.90;;
26303;SDS011;57113;48.680;8.890;2023-04-24T04:40:55;1.88;;;0.80;;
26303;SDS011;57113;48.680;8.890;2023-04-24T04:43:24;1.63;;;0.80;;
26303;SDS011;57113;48.680;8.890;2023-04-24T04:45:50;1.77;;;0.70;;
26303;SDS011;57113;48.680;8.890;2023-04-24T04:48:19;1.35;;;0.70;;
26303;SDS011;57113;48.680;8.890;2023-04-24T04:50:45;1.35;;;0.90;;
26303;SDS011;57113;48.680;8.890;2023-04-24T04:53:11;2.17;;;0.65;;
26303;SDS011;57113;48.680;8.890;2023-04-24T04:55:36;1.23;;;0.68;;
26303;SDS011;57113;48.680;8.890;2023-04-24T04:58:02;2.38;;;0.73;;
26303;SDS011;57113;48.680;8.890;2023-04-24T05:00:28;1.40;;;0.80;;
26303;SDS011;57113;48.680;8.890;2023-04-24T05:02:58;4.20;;;0.70;;
26303;SDS011;57113;48.680;8.890;2023-04-24T05:05:24;1.25;;;0.70;;
26303;SDS011;57113;48.680;8.890;2023-04-24T05:07:50;1.55;;;0.73;;
26303;SDS011;57113;48.680;8.890;2023-04-24T05:10:15;2.70;;;0.90;;
26303;SDS011;57113;48.680;8.890;2023-04-24T05:12:41;3.13;;;0.90;;
26303;SDS011;57113;48.680;8.890;2023-04-24T05:15:06;1.20;;;0.80;;
26303;SDS011;57113;48.680;8.890;2023-04-24T05:17:32;2.88;;;1.08;;
26303;SDS011;57113;48.680;8.890;2023-04-24T05:19:58;1.60;;;0.90;;
26303;SDS011;57113;48.680;8.890;2023-04-24T05:22:24;1.38;;;0.70;;
26303;SDS011;57113;48.680;8.890;2023-04-24T05:24:49;1.05;;;0.70;;
26303;SDS011;57113;48.680;8.890;2023-04-24T05:27:15;1.70;;;0.70;;
26303;SDS011;57113;48.680;8.890;2023-04-24T05:29:40;1.38;;;0.90;;
26303;SDS011;57113;48.680;8.890;2023-04-24T05:32:06;4.60;;;1.00;;
26303;SDS011;57113;48.680;8.890;2023-04-24T05:34:32;1.95;;;0.80;;
26303;SDS011;57113;48.680;8.890;2023-04-24T05:36:58;0.88;;;0.60;;
26303;SDS011;57113;48.680;8.890;2023-04-24T05:39:23;1.13;;;0.65;;
26303;SDS011;57113;48.680;8.890;2023-04-24T05:41:50;1.65;;;0.80;;
26303;SDS011;57113;48.680;8.890;2023-04-24T05:44:16;2.25;;;0.85;;
26303;SDS011;57113;48.680;8.890;2023-04-24T05:46:41;3.58;;;1.30;;
26303;SDS011;57113;48.680;8.890;2023-04-24T05:49:07;2.47;;;1.27;;
26303;SDS011;57113;48.680;8.890;2023-04-24T05:51:32;3.75;;;1.75;;
26303;SDS011;57113;48.680;8.890;2023-04-24T05:53:58;2.58;;;1.38;;
26303;SDS011;57113;48.680;8.890;2023-04-24T05:56:24;2.55;;;1.60;;
26303;SDS011;57113;48.680;8.890;2023-04-24T05:58:50;3.28;;;1.58;;
26303;SDS011;57113;48.680;8.890;2023-04-24T06:01:15;2.20;;;1.30;;
26303;SDS011;57113;48.680;8.890;2023-04-24T06:03:41;2.30;;;1.25;;
26303;SDS011;57113;48.680;8.890;2023-04-24T06:06:07;1.67;;;1.05;;
26303;SDS011;57113;48.680;8.890;2023-04-24T06:08:33;1.80;;;1.13;;
26303;SDS011;57113;48.680;8.890;2023-04-24T06:11:00;2.38;;;1.00;;
26303;SDS011;57113;48.680;8.890;2023-04-24T06:13:26;2.10;;;1.25;;
26303;SDS011;57113;48.680;8.890;2023-04-24T06:15:52;2.08;;;1.27;;
26303;SDS011;57113;48.680;8.890;2023-04-24T06:18:18;2.58;;;1.30;;
26303;SDS011;57113;48.680;8.890;2023-04-24T06:20:44;2.45;;;1.00;;
26303;SDS011;57113;48.680;8.890;2023-04-24T06:23:11;1.83;;;1.08;;
26303;SDS011;57113;48.680;8.890;2023-04-24T06:25:36;3.72;;;1.40;;
26303;SDS011;57113;48.680;8.890;2023-04-24T06:28:02;4.45;;;1.40;;
26303;SDS011;57113;48.680;8.890;2023-04-24T06:30:28;2.88;;;1.20;;
26303;SDS011;57113;48.680;8.890;2023-04-24T06:32:54;3.92;;;1.15;;
26303;SDS011;57113;48.680;8.890;2023-04-24T06:35:19;1.17;;;1.00;;
26303;SDS011;57113;48.680;8.890;2023-04-24T06:37:45;2.65;;;1.35;;
26303;SDS011;57113;48.680;8.890;2023-04-24T06:40:11;3.58;;;1.40;;
26303;SDS011;57113;48.680;8.890;2023-04-24T06:42:36;1.67;;;1.20;;
26303;SDS011;57113;48.680;8.890;2023-04-24T06:45:02;2.95;;;1.02;;
26303;SDS011;57113;48.680;8.890;2023-04-24T06:47:28;1.70;;;1.10;;
26303;SDS011;57113;48.680;8.890;2023-04-24T06:49:54;1.67;;;1.00;;
26303;SDS011;57113;48.680;8.890;2023-04-24T06:52:20;3.80;;;1.15;;
26303;SDS011;57113;48.680;8.890;2023-04-24T06:54:46;2.55;;;1.15;;
26303;SDS011;57113;48.680;8.890;2023-04-24T06:57:11;1.40;;;1.08;;
26303;SDS011;57113;48.680;8.890;2023-04-24T06:59:37;2.65;;;1.10;;
26303;SDS011;57113;48.680;8.890;2023-04-24T07:02:03;2.70;;;1.20;;
26303;SDS011;57113;48.680;8.890;2023-04-24T07:04:29;1.30;;;1.10;;
26303;SDS011;57113;48.680;8.890;2023-04-24T07:06:55;2.08;;;0.90;;
26303;SDS011;57113;48.680;8.890;2023-04-24T07:09:22;1.48;;;1.13;;
26303;SDS011;57113;48.680;8.890;2023-04-24T07:11:50;1.15;;;1.00;;
26303;SDS011;57113;48.680;8.890;2023-04-24T07:14:16;1.60;;;1.10;;
26303;SDS011;57113;48.680;8.890;2023-04-24T07:16:42;1.95;;;1.05;;
26303;SDS011;57113;48.680;8.890;2023-04-24T07:19:08;1.58;;;0.80;;
26303;SDS011;57113;48.680;8.890;2023-04-24T07:21:34;1.23;;;0.90;;
26303;SDS011;57113;48.680;8.890;2023-04-24T07:24:00;3.00;;;0.90;;
26303;SDS011;57113;48.680;8.890;2023-04-24T07:26:26;2.08;;;0.90;;
26303;SDS011;57113;48.680;8.890;2023-04-24T07:28:53;1.60;;;1.00;;
26303;SDS011;57113;48.680;8.890;2023-04-24T07:31:19;1.95;;;1.00;;
26303;SDS011;57113;48.680;8.890;2023-04-24T07:33:44;1.45;;;1.00;;
26303;SDS011;57113;48.680;8.890;2023-04-24T07:36:10;2.70;;;1.05;;
26303;SDS011;57113;48.680;8.890;2023-04-24T07:38:40;1.88;;;1.13;;
26303;SDS011;57113;48.680;8.890;2023-04-24T07:41:09;2.58;;;1.17;;
26303;SDS011;57113;48.680;8.890;2023-04-24T07:43:35;1.83;;;0.90;;
26303;SDS011;57113;48.680;8.890;2023-04-24T07:46:01;1.58;;;0.85;;
26303;SDS011;57113;48.680;8.890;2023-04-24T07:48:27;1.40;;;0.90;;
26303;SDS011;57113;48.680;8.890;2023-04-24T07:50:52;1.50;;;0.77;;
26303;SDS011;57113;48.680;8.890;2023-04-24T07:53:18;4.25;;;0.90;;
26303;SDS011;57113;48.680;8.890;2023-04-24T07:55:44;1.50;;;1.00;;
26303;SDS011;57113;48.680;8.890;2023-04-24T07:58:11;2.15;;;0.90;;
26303;SDS011;57113;48.680;8.890;2023-04-24T08:00:36;1.55;;;0.98;;
26303;SDS011;57113;48.680;8.890;2023-04-24T08:03:02;2.10;;;1.00;;
26303;SDS011;57113;48.680;8.890;2023-04-24T08:05:27;1.30;;;0.90;;
26303;SDS011;57113;48.680;8.890;2023-04-24T08:07:53;1.67;;;0.90;;
26303;SDS011;57113;48.680;8.890;2023-04-24T08:10:20;1.20;;;1.00;;
26303;SDS011;57113;48.680;8.890;2023-04-24T08:12:49;2.35;;;1.10;;
26303;SDS011;57113;48.680;8.890;2023-04-24T08:15:15;1.45;;;0.90;;
26303;SDS011;57113;48.680;8.890;2023-04-24T08:17:41;1.60;;;1.13;;
26303;SDS011;57113;48.680;8.890;2023-04-24T08:20:07;1.35;;;0.98;;
26303;SDS011;57113;48.680;8.890;2023-04-24T08:22:38;1.88;;;0.90;;
26303;SDS011;57113;48.680;8.890;2023-04-24T08:25:05;2.33;;;1.10;;
26303;SDS011;57113;48.680;8.890;2023-04-24T08:27:31;2.45;;;1.33;;
26303;SDS011;57113;48.680;8.890;2023-04-24T08:29:57;2.30;;;1.25;;
26303;SDS011;57113;48.680;8.890;2023-04-24T08:32:24;1.67;;;1.10;;
26303;SDS011;57113;48.680;8.890;2023-04-24T08:34:52;2.60;;;1.15;;
26303;SDS011;57113;48.680;8.890;2023-04-24T08:37:18;1.83;;;1.00;;
26303;SDS011;57113;48.680;8.890;2023-04-24T08:39:44;2.70;;;1.00;;
26303;SDS011;57113;48.680;8.890;2023-04-24T08:42:09;3.78;;;1.10;;
26303;SDS011;57113;48.680;8.890;2023-04-24T08:44:36;2.78;;;1.08;;
26303;SDS011;57113;48.680;8.890;2023-04-24T08:47:02;1.83;;;1.10;;
26303;SDS011;57113;48.680;8.890;2023-04-24T08:49:28;1.60;;;1.17;;
26303;SDS011;57113;48.680;8.890;2023-04-24T08:51:54;1.63;;;1.20;;
26303;SDS011;57113;48.680;8.890;2023-04-24T08:54:20;3.15;;;1.02;;
26303;SDS011;57113;48.680;8.890;2023-04-24T08:56:47;1.67;;;0.88;;
26303;SDS011;57113;48.680;8.890;2023-04-24T08:59:14;2.25;;;1.00;;
26303;SDS011;57113;48.680;8.890;2023-04-24T09:01:41;2.17;;;0.88;;
26303;SDS011;57113;48.680;8.890;2023-04-24T09:04:07;2.95;;;0.90;;
26303;SDS011;57113;48.680;8.890;2023-04-24T09:06:37;2.47;;;1.00;;
26303;SDS011;57113;48.680;8.890;2023-04-24T09:09:04;1.58;;;0.98;;
26303;SDS011;57113;48.680;8.890;2023-04-24T09:11:30;1.60;;;0.90;;
26303;SDS011;57113;48.680;8.890;2023-04-24T09:14:00;1.83;;;0.93;;
26303;SDS011;57113;48.680;8.890;2023-04-24T09:16:26;3.85;;;1.00;;
26303;SDS011;57113;48.680;8.890;2023-04-24T09:18:52;5.20;;;1.10;;
26303;SDS011;57113;48.680;8.890;2023-04-24T09:21:20;3.40;;;1.02;;
26303;SDS011;57113;48.680;8.890;2023-04-24T09:23:46;3.83;;;1.10;;
26303;SDS011;57113;48.680;8.890;2023-04-24T09:26:24;2.22;;;0.88;;
26303;SDS011;57113;48.680;8.890;2023-04-24T09:28:49;3.28;;;1.13;;
26303;SDS011;57113;48.680;8.890;2023-04-24T09:31:17;1.17;;;0.70;;
26303;SDS011;57113;48.680;8.890;2023-04-24T09:34:03;1.88;;;0.82;;
26303;SDS011;57113;48.680;8.890;2023-04-24T09:36:33;2.92;;;0.90;;
26303;SDS011;57113;48.680;8.890;2023-04-24T09:39:09;2.53;;;0.90;;
26303;SDS011;57113;48.680;8.890;2023-04-24T09:41:57;2.60;;;0.90;;
26303;SDS011;57113;48.680;8.890;2023-04-24T09:44:24;3.13;;;1.17;;
26303;SDS011;57113;48.680;8.890;2023-04-24T09:49:25;3.03;;;0.90;;
26303;SDS011;57113;48.680;8.890;2023-04-24T09:52:02;2.00;;;0.70;;
26303;SDS011;57113;48.680;8.890;2023-04-24T09:54:28;1.40;;;0.88;;
26303;SDS011;57113;48.680;8.890;2023-04-24T09:56:54;1.95;;;0.90;;
26303;SDS011;57113;48.680;8.890;2023-04-24T09:59:21;3.70;;;0.80;;
26303;SDS011;57113;48.680;8.890;2023-04-24T10:01:47;3.08;;;0.82;;
26303;SDS011;57113;48.680;8.890;2023-04-24T10:06:50;1.42;;;0.80;;
26303;SDS011;57113;48.680;8.890;2023-04-24T10:09:17;2.88;;;0.80;;
26303;SDS011;57113;48.680;8.890;2023-04-24T10:11:46;3.17;;;0.70;;
26303;SDS011;57113;48.680;8.890;2023-04-24T10:14:13;2.53;;;0.80;;
26303;SDS011;57113;48.680;8.890;2023-04-24T10:16:40;1.27;;;0.75;;
26303;SDS011;57113;48.680;8.890;2023-04-24T10:19:07;0.82;;;0.60;;
26303;SDS011;57113;48.680;8.890;2023-04-24T10:21:33;1.50;;;0.73;;
26303;SDS011;57113;48.680;8.890;2023-04-24T10:24:00;2.78;;;0.90;;
26303;SDS011;57113;48.680;8.890;2023-04-24T10:26:28;1.17;;;0.80;;
26303;SDS011;57113;48.680;8.890;2023-04-24T10:28:54;2.72;;;1.10;;
26303;SDS011;57113;48.680;8.890;2023-04-24T10:31:23;1.10;;;0.68;;
26303;SDS011;57113;48.680;8.890;2023-04-24T10:33:50;1.30;;;0.70;;
26303;SDS011;57113;48.680;8.890;2023-04-24T10:36:17;1.35;;;0.70;;
26303;SDS011;57113;48.680;8.890;2023-04-24T10:38:44;2.28;;;0.80;;
26303;SDS011;57113;48.680;8.890;2023-04-24T10:41:12;1.15;;;0.80;;
26303;SDS011;57113;48.680;8.890;2023-04-24T10:43:44;1.33;;;0.70;;
26303;SDS011;57113;48.680;8.890;2023-04-24T10:46:10;1.25;;;0.80;;
26303;SDS011;57113;48.680;8.890;2023-04-24T10:48:44;1.43;;;0.80;;
26303;SDS011;57113;48.680;8.890;2023-04-24T10:51:23;2.03;;;0.90;;
26303;SDS011;57113;48.680;8.890;2023-04-24T10:54:21;1.20;;;0.68;;
26303;SDS011;57113;48.680;8.890;2023-04-24T10:56:47;1.17;;;0.65;;
26303;SDS011;57113;48.680;8.890;2023-04-24T10:59:23;0.80;;;0.63;;
26303;SDS011;57113;48.680;8.890;2023-04-24T11:01:53;0.82;;;0.70;;
26303;SDS011;57113;48.680;8.890;2023-04-24T11:04:29;1.60;;;0.70;;
26303;SDS011;57113;48.680;8.890;2023-04-24T11:06:56;1.35;;;0.90;;
26303;SDS011;57113;48.680;8.890;2023-04-24T11:09:22;3.35;;;0.90;;
26303;SDS011;57113;48.680;8.890;2023-04-24T11:11:53;1.85;;;0.95;;
26303;SDS011;57113;48.680;8.890;2023-04-24T11:17:44;1.98;;;1.08;;
26303;SDS011;57113;48.680;8.890;2023-04-24T11:20:10;0.68;;;0.57;;
26303;SDS011;57113;48.680;8.890;2023-04-24T11:22:38;1.67;;;0.93;;
26303;SDS011;57113;48.680;8.890;2023-04-24T11:25:07;0.98;;;0.82;;
26303;SDS011;57113;48.680;8.890;2023-04-24T11:27:43;1.45;;;0.90;;
26303;SDS011;57113;48.680;8.890;2023-04-24T11:30:17;1.55;;;0.70;;
26303;SDS011;57113;48.680;8.890;2023-04-24T11:32:46;1.85;;;0.80;;
26303;SDS011;57113;48.680;8.890;2023-04-24T11:35:18;1.35;;;0.60;;
26303;SDS011;57113;48.680;8.890;2023-04-24T11:37:47;1.45;;;0.77;;
26303;SDS011;57113;48.680;8.890;2023-04-24T11:40:14;1.83;;;0.77;;
26303;SDS011;57113;48.680;8.890;2023-04-24T11:42:44;1.77;;;0.80;;
26303;SDS011;57113;48.680;8.890;2023-04-24T11:45:15;1.23;;;0.88;;
26303;SDS011;57113;48.680;8.890;2023-04-24T11:47:46;0.77;;;0.73;;
26303;SDS011;57113;48.680;8.890;2023-04-24T11:50:12;1.10;;;0.70;;
26303;SDS011;57113;48.680;8.890;2023-04-24T11:52:42;1.10;;;0.60;;
26303;SDS011;57113;48.680;8.890;2023-04-24T11:57:52;0.98;;;0.60;;
26303;SDS011;57113;48.680;8.890;2023-04-24T12:00:30;1.25;;;0.90;;
26303;SDS011;57113;48.680;8.890;2023-04-24T12:03:06;0.90;;;0.65;;
26303;SDS011;57113;48.680;8.890;2023-04-24T12:05:36;0.80;;;0.80;;
26303;SDS011;57113;48.680;8.890;2023-04-24T12:08:02;0.70;;;0.60;;
26303;SDS011;57113;48.680;8.890;2023-04-24T12:10:28;1.42;;;0.80;;
26303;SDS011;57113;48.680;8.890;2023-04-24T12:12:55;1.55;;;0.80;;
26303;SDS011;57113;48.680;8.890;2023-04-24T12:15:22;4.18;;;0.80;;
26303;SDS011;57113;48.680;8.890;2023-04-24T12:17:48;1.95;;;0.80;;
26303;SDS011;57113;48.680;8.890;2023-04-24T12:20:16;2.50;;;0.77;;
26303;SDS011;57113;48.680;8.890;2023-04-24T12:22:49;1.42;;;1.00;;
26303;SDS011;57113;48.680;8.890;2023-04-24T12:25:20;3.88;;;0.90;;
26303;SDS011;57113;48.680;8.890;2023-04-24T12:27:53;0.77;;;0.70;;
26303;SDS011;57113;48.680;8.890;2023-04-24T12:30:20;0.82;;;0.75;;
26303;SDS011;57113;48.680;8.890;2023-04-24T12:32:47;1.30;;;0.82;;
26303;SDS011;57113;48.680;8.890;2023-04-24T12:35:14;0.70;;;0.70;;
26303;SDS011;57113;48.680;8.890;2023-04-24T12:37:45;1.48;;;0.80;;
26303;SDS011;57113;48.680;8.890;2023-04-24T12:40:12;3.38;;;0.80;;
26303;SDS011;57113;48.680;8.890;2023-04-24T12:42:45;1.33;;;0.80;;
26303;SDS011;57113;48.680;8.890;2023-04-24T12:45:15;2.33;;;0.70;;
26303;SDS011;57113;48.680;8.890;2023-04-24T12:47:42;1.67;;;0.60;;
26303;SDS011;57113;48.680;8.890;2023-04-24T12:50:09;2.00;;;0.77;;
26303;SDS011;57113;48.680;8.890;2023-04-24T12:52:36;2.75;;;0.77;;
26303;SDS011;57113;48.680;8.890;2023-04-24T12:55:02;1.50;;;0.70;;
26303;SDS011;57113;48.680;8.890;2023-04-24T12:57:29;1.30;;;0.73;;
26303;SDS011;57113;48.680;8.890;2023-04-24T12:59:56;1.58;;;0.60;;
26303;SDS011;57113;48.680;8.890;2023-04-24T13:02:24;1.45;;;0.80;;
26303;SDS011;57113;48.680;8.890;2023-04-24T13:04:51;1.15;;;0.90;;
26303;SDS011;57113;48.680;8.890;2023-04-24T13:07:17;1.02;;;0.77;;
26303;SDS011;57113;48.680;8.890;2023-04-24T13:09:43;1.42;;;0.93;;
26303;SDS011;57113;48.680;8.890;2023-04-24T13:12:10;1.17;;;0.80;;
26303;SDS011;57113;48.680;8.890;2023-04-24T13:14:36;1.17;;;0.90;;
26303;SDS011;57113;48.680;8.890;2023-04-24T13:17:03;1.77;;;1.00;;
26303;SDS011;57113;48.680;8.890;2023-04-24T13:19:29;2.35;;;1.23;;
26303;SDS011;57113;48.680;8.890;2023-04-24T13:22:00;2.22;;;1.20;;
26303;SDS011;57113;48.680;8.890;2023-04-24T13:24:26;1.95;;;1.10;;
26303;SDS011;57113;48.680;8.890;2023-04-24T13:26:54;2.10;;;1.10;;
26303;SDS011;57113;48.680;8.890;2023-04-24T13:29:21;1.65;;;1.38;;
26303;SDS011;57113;48.680;8.890;2023-04-24T13:31:47;1.92;;;1.00;;
26303;SDS011;57113;48.680;8.890;2023-04-24T13:34:14;2.22;;;1.40;;
26303;SDS011;57113;48.680;8.890;2023-04-24T13:36:40;1.48;;;1.20;;
26303;SDS011;57113;48.680;8.890;2023-04-24T13:39:06;2.90;;;1.23;;
26303;SDS011;57113;48.680;8.890;2023-04-24T13:41:32;1.42;;;1.05;;
26303;SDS011;57113;48.680;8.890;2023-04-24T13:43:58;3.72;;;1.20;;
26303;SDS011;57113;48.680;8.890;2023-04-24T13:46:23;1.60;;;1.10;;
26303;SDS011;57113;48.680;8.890;2023-04-24T13:48:49;1.45;;;1.00;;
26303;SDS011;57113;48.680;8.890;2023-04-24T13:51:15;1.23;;;1.02;;
26303;SDS011;57113;48.680;8.890;2023-04-24T13:53:41;1.52;;;0.98;;
26303;SDS011;57113;48.680;8.890;2023-04-24T13:56:06;1.20;;;1.00;;
26303;SDS011;57113;48.680;8.890;2023-04-24T13:58:32;3.00;;;1.10;;
26303;SDS011;57113;48.680;8.890;2023-04-24T14:00:58;1.95;;;1.10;;
26303;SDS011;57113;48.680;8.890;2023-04-24T14:03:24;1.73;;;1.20;;
26303;SDS011;57113;48.680;8.890;2023-04-24T14:05:49;3.75;;;1.38;;
26303;SDS011;57113;48.680;8.890;2023-04-24T14:08:15;2.95;;;1.05;;
26303;SDS011;57113;48.680;8.890;2023-04-24T14:10:42;2.70;;;0.93;;
26303;SDS011;57113;48.680;8.890;2023-04-24T14:13:07;2.00;;;1.20;;
26303;SDS011;57113;48.680;8.890;2023-04-24T14:15:35;2.70;;;1.08;;
26303;SDS011;57113;48.680;8.890;2023-04-24T14:18:01;4.05;;;1.13;;
26303;SDS011;57113;48.680;8.890;2023-04-24T14:20:28;1.83;;;1.23;;
26303;SDS011;57113;48.680;8.890;2023-04-24T14:22:53;5.15;;;1.27;;
26303;SDS011;57113;48.680;8.890;2023-04-24T14:25:19;1.95;;;1.30;;
26303;SDS011;57113;48.680;8.890;2023-04-24T14:27:47;2.08;;;1.10;;
26303;SDS011;57113;48.680;8.890;2023-04-24T14:30:12;3.78;;;1.30;;
26303;SDS011;57113;48.680;8.890;2023-04-24T14:32:38;1.75;;;1.00;;
26303;SDS011;57113;48.680;8.890;2023-04-24T14:35:05;2.05;;;1.13;;
26303;SDS011;57113;48.680;8.890;2023-04-24T14:37:31;2.03;;;1.00;;
26303;SDS011;57113;48.680;8.890;2023-04-24T14:39:57;1.40;;;1.08;;
26303;SDS011;57113;48.680;8.890;2023-04-24T14:42:23;1.58;;;1.00;;
26303;SDS011;57113;48.680;8.890;2023-04-24T14:44:49;1.50;;;1.00;;
26303;SDS011;57113;48.680;8.890;2023-04-24T14:47:15;2.15;;;1.10;;
26303;SDS011;57113;48.680;8.890;2023-04-24T14:49:42;1.90;;;1.20;;
26303;SDS011;57113;48.680;8.890;2023-04-24T14:52:09;1.92;;;1.10;;
26303;SDS011;57113;48.680;8.890;2023-04-24T14:54:35;1.70;;;1.20;;
26303;SDS011;57113;48.680;8.890;2023-04-24T14:57:00;1.83;;;1.02;;